createdAt,value
2023-04-02T00:00:11.962Z,94.80
2023-04-02T00:03:04.355Z,94.90
2023-04-02T00:05:52.138Z,90.10
2023-04-02T00:08:25.962Z,94.70
2023-04-02T00:10:59.422Z,94.70
2023-04-02T00:13:39.541Z,89.40
2023-04-02T00:16:11.071Z,89.30
2023-04-02T00:18:44.245Z,94.30
2023-04-02T00:21:19.276Z,94.30
2023-04-02T00:23:46.385Z,94.20
2023-04-02T00:26:23.052Z,94.20
2023-04-02T00:28:51.338Z,94.30
2023-04-02T00:31:20.342Z,94.40
2023-04-02T00:33:49.478Z,94.40
2023-04-02T00:36:20.028Z,94.50
2023-04-02T00:38:48.696Z,94.50
2023-04-02T00:41:22.350Z,94.60
2023-04-02T00:43:50.863Z,94.50
2023-04-02T00:46:25.257Z,94.50
2023-04-02T00:49:09.126Z,94.50
2023-04-02T00:51:41.763Z,94.60
2023-04-02T00:54:15.932Z,94.50
2023-04-02T00:56:46.208Z,94.50
2023-04-02T00:59:27.846Z,94.50
2023-04-02T01:02:01.825Z,94.50
2023-04-02T01:04:36.523Z,94.50
2023-04-02T01:07:08.703Z,94.40
2023-04-02T01:09:53.146Z,94.50
2023-04-02T01:12:32.085Z,94.50
2023-04-02T01:15:11.067Z,94.50
2023-04-02T01:17:54.633Z,94.50
2023-04-02T01:20:43.714Z,94.70
2023-04-02T01:23:42.138Z,94.70
2023-04-02T01:26:44.568Z,94.70
2023-04-02T01:29:28.950Z,94.60
2023-04-02T01:32:00.346Z,94.50
2023-04-02T01:34:28.996Z,94.40
2023-04-02T01:37:04.900Z,94.40
2023-04-02T01:39:45.461Z,94.40
2023-04-02T01:42:16.572Z,94.50
2023-04-02T01:44:49.022Z,94.50
2023-04-02T01:47:19.418Z,94.50
2023-04-02T01:49:47.163Z,94.60
2023-04-02T01:52:17.942Z,94.60
2023-04-02T01:54:47.226Z,94.70
2023-04-02T01:57:14.252Z,94.70
2023-04-02T01:59:41.204Z,94.80
2023-04-02T02:02:12.821Z,94.80
2023-04-02T02:04:40.353Z,94.80
2023-04-02T02:07:14.680Z,94.90
2023-04-02T02:09:42.748Z,94.90
2023-04-02T02:12:13.733Z,94.90
2023-04-02T02:14:46.907Z,95.00
2023-04-02T02:17:19.347Z,95.00
2023-04-02T02:19:50.547Z,95.10
2023-04-02T02:22:31.394Z,95.00
2023-04-02T02:25:00.789Z,95.00
2023-04-02T02:27:27.468Z,95.00
2023-04-02T02:30:41.792Z,95.00
2023-04-02T02:33:26.392Z,95.00
2023-04-02T02:36:05.494Z,95.00
2023-04-02T02:38:35.235Z,94.90
2023-04-02T02:41:08.667Z,94.90
2023-04-02T02:43:41.969Z,94.90
2023-04-02T02:46:15.292Z,94.80
2023-04-02T02:48:44.118Z,94.80
2023-04-02T02:51:20.705Z,94.70
2023-04-02T02:53:52.821Z,94.70
2023-04-02T02:56:23.053Z,94.60
2023-04-02T02:58:52.930Z,94.70
2023-04-02T03:01:19.845Z,94.70
2023-04-02T03:03:47.766Z,94.80
2023-04-02T03:06:17.161Z,94.80
2023-04-02T03:08:53.361Z,94.90
2023-04-02T03:11:47.441Z,94.90
2023-04-02T03:14:37.448Z,94.90
2023-04-02T03:17:32.939Z,95.00
2023-04-02T03:20:16.021Z,95.00
2023-04-02T03:22:58.174Z,95.00
2023-04-02T03:25:37.307Z,95.00
2023-04-02T03:28:07.909Z,95.10
2023-04-02T03:30:49.891Z,95.10
2023-04-02T03:33:31.325Z,95.20
2023-04-02T03:36:28.428Z,95.20
2023-04-02T03:39:37.341Z,95.20
2023-04-02T03:42:08.046Z,95.20
2023-04-02T03:44:53.254Z,95.20
2023-04-02T03:47:33.943Z,95.20
2023-04-02T03:50:28.352Z,95.30
2023-04-02T03:52:56.774Z,95.30
2023-04-02T03:55:30.605Z,95.30
2023-04-02T03:58:15.110Z,95.30
2023-04-02T04:01:03.319Z,95.30
2023-04-02T04:03:38.833Z,95.30
2023-04-02T04:06:15.452Z,95.30
2023-04-02T04:08:50.709Z,95.30
2023-04-02T04:11:22.721Z,95.40
2023-04-02T04:14:02.894Z,95.40
2023-04-02T04:16:41.728Z,95.40
2023-04-02T04:19:32.600Z,95.40
2023-04-02T04:22:19.871Z,95.40
2023-04-02T04:24:47.708Z,95.40
2023-04-02T04:27:17.221Z,95.40
2023-04-02T04:30:05.850Z,95.50
2023-04-02T04:32:50.162Z,95.50
2023-04-02T04:35:28.698Z,95.50
2023-04-02T04:38:07.771Z,95.50
2023-04-02T04:40:37.731Z,95.50
2023-04-02T04:43:10.769Z,95.50
2023-04-02T04:46:04.891Z,95.50
2023-04-02T04:49:00.518Z,95.50
2023-04-02T04:51:56.203Z,95.60
2023-04-02T04:54:26.588Z,95.60
2023-04-02T04:57:00.352Z,95.60
2023-04-02T04:59:49.753Z,95.60
2023-04-02T05:02:18.566Z,95.60
2023-04-02T05:04:51.528Z,95.60
2023-04-02T05:07:36.395Z,95.60
2023-04-02T05:10:18.560Z,95.60
2023-04-02T05:13:21.092Z,95.60
2023-04-02T05:16:10.960Z,95.60
2023-04-02T05:18:47.343Z,95.60
2023-04-02T05:21:27.041Z,95.60
2023-04-02T05:24:23.840Z,95.60
2023-04-02T05:26:51.931Z,95.60
2023-04-02T05:29:26.774Z,95.60
2023-04-02T05:32:13.052Z,95.70
2023-04-02T05:34:43.166Z,95.70
2023-04-02T05:37:18.310Z,95.70
2023-04-02T05:39:46.283Z,95.70
2023-04-02T05:42:22.426Z,95.70
2023-04-02T05:45:10.580Z,95.70
2023-04-02T05:47:43.188Z,95.70
2023-04-02T05:50:15.699Z,95.70
2023-04-02T05:52:57.843Z,95.70
2023-04-02T05:55:38.141Z,95.70
2023-04-02T05:58:34.523Z,95.70
2023-04-02T06:01:12.832Z,91.00
2023-04-02T06:03:46.284Z,91.00
2023-04-02T06:06:45.055Z,91.00
2023-04-02T06:09:57.478Z,91.00
2023-04-02T06:12:36.374Z,91.00
2023-04-02T06:15:03.428Z,91.00
2023-04-02T06:17:33.557Z,91.00
2023-04-02T06:20:04.276Z,91.00
2023-04-02T06:22:38.484Z,91.00
2023-04-02T06:25:29.254Z,91.00
2023-04-02T06:27:59.732Z,91.00
2023-04-02T06:30:32.580Z,91.00
2023-04-02T06:32:59.436Z,90.90
2023-04-02T06:35:26.716Z,90.90
2023-04-02T06:37:57.287Z,90.90
2023-04-02T06:40:48.838Z,90.90
2023-04-02T06:43:40.955Z,91.00
2023-04-02T06:46:31.277Z,91.00
2023-04-02T06:49:15.172Z,90.90
2023-04-02T06:51:43.994Z,90.90
2023-04-02T06:54:16.162Z,90.90
2023-04-02T06:56:46.915Z,91.00
2023-04-02T06:59:15.792Z,91.00
2023-04-02T07:01:54.638Z,90.90
2023-04-02T07:04:22.273Z,91.00
2023-04-02T07:06:49.140Z,91.00
2023-04-02T07:09:16.675Z,90.90
2023-04-02T07:11:43.602Z,90.90
2023-04-02T07:14:13.489Z,91.00
2023-04-02T07:16:42.464Z,91.00
2023-04-02T07:19:18.285Z,91.00
2023-04-02T07:21:45.508Z,91.00
2023-04-02T07:24:12.233Z,91.10
2023-04-02T07:26:39.118Z,91.00
2023-04-02T07:29:13.762Z,91.00
2023-04-02T07:31:43.320Z,91.00
2023-04-02T07:34:10.927Z,91.10
2023-04-02T07:36:37.726Z,91.10
2023-04-02T07:39:04.902Z,91.10
2023-04-02T07:41:31.622Z,91.10
2023-04-02T07:43:58.461Z,91.10
2023-04-02T07:46:25.987Z,91.10
2023-04-02T07:48:52.899Z,91.10
2023-04-02T07:51:22.692Z,91.10
2023-04-02T07:53:50.318Z,91.20
2023-04-02T07:56:19.613Z,91.10
2023-04-02T07:58:46.627Z,91.10
2023-04-02T08:01:26.461Z,91.00
2023-04-02T08:03:55.047Z,90.90
2023-04-02T08:06:22.786Z,90.90
2023-04-02T08:08:49.947Z,90.80
2023-04-02T08:11:16.870Z,90.80
2023-04-02T08:13:43.616Z,90.80
2023-04-02T08:16:11.160Z,90.80
2023-04-02T08:18:38.681Z,90.50
2023-04-02T08:21:10.522Z,89.90
2023-04-02T08:23:38.134Z,89.90
2023-04-02T08:26:06.289Z,89.30
2023-04-02T08:28:33.142Z,89.20
2023-04-02T08:31:00.220Z,87.90
2023-04-02T08:33:27.188Z,88.00
2023-04-02T08:35:54.095Z,86.50
2023-04-02T08:38:23.029Z,84.90
2023-04-02T08:40:52.482Z,81.00
2023-04-02T08:43:53.157Z,75.90
2023-04-02T08:46:51.998Z,71.90
2023-04-02T08:49:29.088Z,74.40
2023-04-02T08:51:55.952Z,72.20
2023-04-02T08:54:27.974Z,67.30
2023-04-02T08:57:18.404Z,42.40
2023-04-02T08:59:45.840Z,53.60
2023-04-02T09:02:46.896Z,63.50
2023-04-02T09:05:23.004Z,60.40
2023-04-02T09:07:52.456Z,39.90
2023-04-02T09:10:19.763Z,22.50
2023-04-02T09:12:51.411Z,5.90
2023-04-02T09:15:29.425Z,5.40
2023-04-02T09:18:06.855Z,9.70
2023-04-02T09:20:33.668Z,1.00
2023-04-02T09:23:01.794Z,1.00
2023-04-02T09:25:32.026Z,1.00
2023-04-02T09:28:02.640Z,1.00
2023-04-02T09:30:32.193Z,1.00
2023-04-02T09:33:09.076Z,1.00
2023-04-02T09:35:57.914Z,1.00
2023-04-02T09:38:32.930Z,1.00
2023-04-02T09:41:02.715Z,1.00
2023-04-02T09:43:35.577Z,1.00
2023-04-02T09:46:05.734Z,1.00
2023-04-02T09:48:34.434Z,1.00
2023-04-02T09:51:05.880Z,1.00
2023-04-02T09:53:48.995Z,1.00
2023-04-02T09:56:17.414Z,1.00
2023-04-02T09:58:45.580Z,1.00
2023-04-02T10:01:53.328Z,1.00
2023-04-02T10:04:47.954Z,1.00
2023-04-02T10:07:36.783Z,1.00
2023-04-02T10:10:31.437Z,1.00
2023-04-02T10:13:24.448Z,1.00
2023-04-02T10:16:08.984Z,1.00
2023-04-02T10:18:56.098Z,84.00
2023-04-02T10:21:34.133Z,63.20
2023-04-02T10:24:02.986Z,1.00
2023-04-02T10:26:44.841Z,76.50
2023-04-02T10:29:42.143Z,1.00
2023-04-02T10:32:18.550Z,61.50
2023-04-02T10:35:08.904Z,41.40
2023-04-02T10:38:09.099Z,1.00
2023-04-02T10:40:41.797Z,1.00
2023-04-02T10:43:29.462Z,82.60
2023-04-02T10:46:29.780Z,1.00
2023-04-02T10:49:35.946Z,91.20
2023-04-02T10:52:13.588Z,1.00
2023-04-02T10:54:47.846Z,67.30
2023-04-02T10:57:23.556Z,89.00
2023-04-02T11:00:00.516Z,1.00
2023-04-02T11:02:56.737Z,1.00
2023-04-02T11:05:44.240Z,1.00
2023-04-02T11:08:29.238Z,81.90
2023-04-02T11:11:04.353Z,1.00
2023-04-02T11:13:45.563Z,1.00
2023-04-02T11:16:16.183Z,82.60
2023-04-02T11:18:43.187Z,89.60
2023-04-02T11:21:57.343Z,90.20
2023-04-02T11:24:32.976Z,1.00
2023-04-02T11:27:46.274Z,69.40
2023-04-02T11:30:15.954Z,90.30
2023-04-02T11:32:47.254Z,1.00
2023-04-02T11:35:32.495Z,1.00
2023-04-02T11:38:23.576Z,86.70
2023-04-02T11:40:51.575Z,71.80
2023-04-02T11:43:33.688Z,1.00
2023-04-02T11:46:02.142Z,1.00
2023-04-02T11:48:36.236Z,1.00
2023-04-02T11:51:23.400Z,1.00
2023-04-02T11:53:52.933Z,83.40
2023-04-02T11:56:35.349Z,1.00
2023-04-02T11:59:20.582Z,1.00
2023-04-02T12:02:05.765Z,1.00
2023-04-02T12:04:56.555Z,1.00
2023-04-02T12:08:05.110Z,1.00
2023-04-02T12:10:56.079Z,64.00
2023-04-02T12:13:41.286Z,68.80
2023-04-02T12:16:12.951Z,38.30
2023-04-02T12:18:48.781Z,1.00
2023-04-02T12:21:20.836Z,1.00
2023-04-02T12:23:48.727Z,82.30
2023-04-02T12:26:27.530Z,15.70
2023-04-02T12:28:54.280Z,66.30
2023-04-02T12:31:25.178Z,1.00
2023-04-02T12:33:52.918Z,1.00
2023-04-02T12:36:22.495Z,1.00
2023-04-02T12:38:58.725Z,1.00
2023-04-02T12:41:30.154Z,63.90
2023-04-02T12:44:15.480Z,1.00
2023-04-02T12:46:43.484Z,1.00
2023-04-02T12:49:39.701Z,36.40
2023-04-02T12:52:18.564Z,65.10
2023-04-02T12:54:58.323Z,1.00
2023-04-02T12:57:31.001Z,61.40
2023-04-02T13:00:18.951Z,68.30
2023-04-02T13:02:51.353Z,74.30
2023-04-02T13:05:36.436Z,72.80
2023-04-02T13:08:05.673Z,60.30
2023-04-02T13:10:32.803Z,1.00
2023-04-02T13:13:02.317Z,1.00
2023-04-02T13:15:32.068Z,1.00
2023-04-02T13:18:17.370Z,1.00
2023-04-02T13:21:23.592Z,1.00
2023-04-02T13:23:50.379Z,1.00
2023-04-02T13:26:24.139Z,1.00
2023-04-02T13:29:25.943Z,89.60
2023-04-02T13:31:56.153Z,1.00
2023-04-02T13:34:23.105Z,1.00
2023-04-02T13:36:49.939Z,86.90
2023-04-02T13:39:16.908Z,1.00
2023-04-02T13:41:45.894Z,53.70
2023-04-02T13:44:30.694Z,7.60
2023-04-02T13:46:58.197Z,15.50
2023-04-02T13:49:25.603Z,14.00
2023-04-02T13:52:00.864Z,1.00
2023-04-02T13:54:40.971Z,67.90
2023-04-02T13:57:07.808Z,1.00
2023-04-02T13:59:34.684Z,84.00
2023-04-02T14:02:10.410Z,1.00
2023-04-02T14:04:44.805Z,1.00
2023-04-02T14:07:31.933Z,39.70
2023-04-02T14:10:15.699Z,68.60
2023-04-02T14:13:10.047Z,19.30
2023-04-02T14:15:48.717Z,69.80
2023-04-02T14:18:52.769Z,78.40
2023-04-02T14:21:26.563Z,81.90
2023-04-02T14:24:22.105Z,82.40
2023-04-02T14:27:06.424Z,82.20
2023-04-02T14:29:48.412Z,74.80
2023-04-02T14:32:19.311Z,67.20
2023-04-02T14:35:07.618Z,66.80
2023-04-02T14:37:57.618Z,71.00
2023-04-02T14:40:24.257Z,73.10
2023-04-02T14:43:24.265Z,39.10
2023-04-02T14:46:00.972Z,60.80
2023-04-02T14:48:52.099Z,68.50
2023-04-02T14:51:40.868Z,76.70
2023-04-02T14:54:15.195Z,69.20
2023-04-02T14:56:52.968Z,71.40
2023-04-02T14:59:25.431Z,68.10
2023-04-02T15:01:58.789Z,56.60
2023-04-02T15:04:42.531Z,63.30
2023-04-02T15:07:23.099Z,72.10
2023-04-02T15:09:57.852Z,70.30
2023-04-02T15:12:31.003Z,65.00
2023-04-02T15:15:22.201Z,69.20
2023-04-02T15:17:53.851Z,74.40
2023-04-02T15:20:20.803Z,72.40
2023-04-02T15:22:53.600Z,77.50
2023-04-02T15:25:29.752Z,80.40
2023-04-02T15:28:13.996Z,79.20
2023-04-02T15:30:44.176Z,79.50
2023-04-02T15:33:34.580Z,80.40
2023-04-02T15:36:15.627Z,81.50
2023-04-02T15:38:50.617Z,81.90
2023-04-02T15:41:26.510Z,82.60
2023-04-02T15:44:08.194Z,79.30
2023-04-02T15:46:52.999Z,79.10
2023-04-02T15:49:52.563Z,72.30
2023-04-02T15:52:25.064Z,74.60
2023-04-02T15:55:27.962Z,76.30
2023-04-02T15:58:10.148Z,75.50
2023-04-02T16:00:49.649Z,74.80
2023-04-02T16:03:40.773Z,77.60
2023-04-02T16:06:17.168Z,82.30
2023-04-02T16:09:26.084Z,83.50
2023-04-02T16:12:01.435Z,83.40
2023-04-02T16:14:31.204Z,80.20
2023-04-02T16:17:17.538Z,74.50
2023-04-02T16:19:52.974Z,71.60
2023-04-02T16:22:25.922Z,74.60
2023-04-02T16:25:13.436Z,77.10
2023-04-02T16:27:56.606Z,78.80
2023-04-02T16:30:53.169Z,82.70
2023-04-02T16:33:41.246Z,82.80
2023-04-02T16:36:26.137Z,82.00
2023-04-02T16:39:08.009Z,81.90
2023-04-02T16:42:01.100Z,82.40
2023-04-02T16:44:35.812Z,91.40
2023-04-02T16:47:21.485Z,90.90
2023-04-02T16:50:08.456Z,90.10
2023-04-02T16:52:41.165Z,85.20
2023-04-02T16:55:29.587Z,85.40
2023-04-02T16:58:17.404Z,85.20
2023-04-02T17:00:59.988Z,84.10
2023-04-02T17:04:04.341Z,84.80
2023-04-02T17:06:43.075Z,84.80
2023-04-02T17:09:26.886Z,86.90
2023-04-02T17:12:12.789Z,83.50
2023-04-02T17:14:49.684Z,80.30
2023-04-02T17:17:17.321Z,80.60
2023-04-02T17:19:44.591Z,83.80
2023-04-02T17:22:17.951Z,85.40
2023-04-02T17:24:49.610Z,88.40
2023-04-02T17:27:22.198Z,90.10
2023-04-02T17:29:52.939Z,90.10
2023-04-02T17:32:29.882Z,91.40
2023-04-02T17:34:57.589Z,91.40
2023-04-02T17:37:38.977Z,91.70
2023-04-02T17:40:18.441Z,91.10
2023-04-02T17:43:08.760Z,91.60
2023-04-02T17:45:44.758Z,91.60
2023-04-02T17:48:26.777Z,92.10
2023-04-02T17:51:30.575Z,92.60
2023-04-02T17:54:15.966Z,92.30
2023-04-02T17:57:27.146Z,91.80
2023-04-02T18:00:19.307Z,92.00
2023-04-02T18:02:51.875Z,91.90
2023-04-02T18:05:31.541Z,92.00
2023-04-02T18:08:04.896Z,92.00
2023-04-02T18:10:48.122Z,92.20
2023-04-02T18:13:14.843Z,92.00
2023-04-02T18:15:56.762Z,91.90
2023-04-02T18:19:12.738Z,91.90
2023-04-02T18:22:03.472Z,91.90
2023-04-02T18:24:51.160Z,92.40
2023-04-02T18:28:01.917Z,92.60
2023-04-02T18:30:40.839Z,92.60
2023-04-02T18:33:22.444Z,92.50
2023-04-02T18:36:16.415Z,92.60
2023-04-02T18:38:51.736Z,92.80
2023-04-02T18:41:54.475Z,92.60
2023-04-02T18:44:28.877Z,92.60
2023-04-02T18:47:09.393Z,92.80
2023-04-02T18:49:42.857Z,93.00
2023-04-02T18:52:16.499Z,93.30
2023-04-02T18:54:51.244Z,93.50
2023-04-02T18:57:33.961Z,93.50
2023-04-02T19:00:06.232Z,93.40
2023-04-02T19:02:56.421Z,93.30
2023-04-02T19:05:44.450Z,93.30
2023-04-02T19:08:19.090Z,93.30
2023-04-02T19:10:54.952Z,93.20
2023-04-02T19:13:21.777Z,93.20
2023-04-02T19:15:54.690Z,93.50
2023-04-02T19:18:45.547Z,93.70
2023-04-02T19:21:43.441Z,93.60
2023-04-02T19:24:31.555Z,93.50
2023-04-02T19:27:28.285Z,93.70
2023-04-02T19:30:18.779Z,93.80
2023-04-02T19:33:03.855Z,93.70
2023-04-02T19:35:57.294Z,93.40
2023-04-02T19:38:52.907Z,92.90
2023-04-02T19:41:51.095Z,92.40
2023-04-02T19:44:18.528Z,91.80
2023-04-02T19:46:46.523Z,89.70
2023-04-02T19:49:32.762Z,86.20
2023-04-02T19:51:59.589Z,81.30
2023-04-02T19:54:26.410Z,76.40
2023-04-02T19:56:53.237Z,70.50
2023-04-02T19:59:20.072Z,73.10
2023-04-02T20:01:47.474Z,67.80
2023-04-02T20:04:14.557Z,65.70
2023-04-02T20:06:41.526Z,49.20
2023-04-02T20:09:08.649Z,32.20
2023-04-02T20:11:37.376Z,60.70
2023-04-02T20:14:05.482Z,67.50
2023-04-02T20:16:33.823Z,70.20
2023-04-02T20:19:00.611Z,66.50
2023-04-02T20:21:27.645Z,62.60
2023-04-02T20:23:55.394Z,63.30
2023-04-02T20:26:22.619Z,62.90
2023-04-02T20:28:49.619Z,50.60
2023-04-02T20:31:18.437Z,43.10
2023-04-02T20:33:45.518Z,37.80
2023-04-02T20:36:14.874Z,40.00
2023-04-02T20:38:41.640Z,59.00
2023-04-02T20:41:09.531Z,39.10
2023-04-02T20:43:37.563Z,34.70
2023-04-02T20:46:08.353Z,32.60
2023-04-02T20:48:37.590Z,38.00
2023-04-02T20:51:06.046Z,23.30
2023-04-02T20:53:34.921Z,8.30
2023-04-02T20:56:07.016Z,16.80
2023-04-02T20:58:35.812Z,40.40
2023-04-02T21:01:06.699Z,51.30
2023-04-02T21:03:33.436Z,20.10
2023-04-02T21:06:00.360Z,13.50
2023-04-02T21:08:27.252Z,25.80
2023-04-02T21:11:00.744Z,34.40
2023-04-02T21:13:30.045Z,43.00
2023-04-02T21:15:56.870Z,30.90
2023-04-02T21:18:23.764Z,12.40
2023-04-02T21:21:01.658Z,14.70
2023-04-02T21:23:29.099Z,5.80
2023-04-02T21:25:57.758Z,23.10
2023-04-02T21:28:24.961Z,16.90
2023-04-02T21:30:51.844Z,21.00
2023-04-02T21:33:18.680Z,26.30
2023-04-02T21:35:45.703Z,15.80
2023-04-02T21:38:12.577Z,24.40
2023-04-02T21:40:39.348Z,23.10
2023-04-02T21:43:06.107Z,22.80
2023-04-02T21:45:32.837Z,24.80
2023-04-02T21:47:59.609Z,22.80
2023-04-02T21:50:26.384Z,23.10
2023-04-02T21:52:53.256Z,26.40
2023-04-02T21:55:20.006Z,25.50
2023-04-02T21:57:46.780Z,20.60
2023-04-02T22:00:15.577Z,20.90
2023-04-02T22:02:42.398Z,12.60
2023-04-02T22:05:09.424Z,3.90
2023-04-02T22:07:36.190Z,12.70
2023-04-02T22:10:03.209Z,14.00
2023-04-02T22:12:29.919Z,1.00
2023-04-02T22:14:56.702Z,1.00
2023-04-02T22:17:23.609Z,1.80
2023-04-02T22:19:50.381Z,1.80
2023-04-02T22:22:17.094Z,4.40
2023-04-02T22:24:43.785Z,1.90
2023-04-02T22:27:10.507Z,1.00
2023-04-02T22:29:37.260Z,1.00
2023-04-02T22:32:03.990Z,1.00
2023-04-02T22:34:31.021Z,1.00
2023-04-02T22:36:57.753Z,1.00
2023-04-02T22:39:24.411Z,1.00
2023-04-02T22:41:51.167Z,1.00
2023-04-02T22:44:17.920Z,1.00
2023-04-02T22:46:44.778Z,1.00
2023-04-02T22:49:11.822Z,1.00
2023-04-02T22:51:38.551Z,1.00
2023-04-02T22:54:05.716Z,1.00
2023-04-02T22:56:33.115Z,1.00
2023-04-02T22:58:59.991Z,1.00
2023-04-02T23:01:33.040Z,1.00
2023-04-02T23:04:00.584Z,1.00
2023-04-02T23:06:28.269Z,1.00
2023-04-02T23:08:55.390Z,1.00
2023-04-02T23:11:24.948Z,1.00
2023-04-02T23:13:53.706Z,1.00
2023-04-02T23:16:21.383Z,1.00
2023-04-02T23:18:48.963Z,1.00
2023-04-02T23:21:17.301Z,1.00
2023-04-02T23:23:44.119Z,1.00
2023-04-02T23:26:21.242Z,1.00
2023-04-02T23:28:48.944Z,94.00
2023-04-02T23:31:18.306Z,93.30
2023-04-02T23:33:45.094Z,94.80
2023-04-02T23:36:20.648Z,94.30
2023-04-02T23:38:47.499Z,91.20
2023-04-02T23:41:15.814Z,88.60
2023-04-02T23:43:43.526Z,78.20
2023-04-02T23:46:10.406Z,72.60
2023-04-02T23:48:37.190Z,46.50
2023-04-02T23:51:04.283Z,61.70
2023-04-02T23:53:31.048Z,1.00
2023-04-02T23:55:57.757Z,63.00
2023-04-02T23:58:24.625Z,1.00
